sensor_id;sensor_type;location;lat;lon;timestamp;pressure;altitude;pressure_sealevel;temperature;humidity
54459;BME280;40368;49.350;8.152;2024-03-29T00:00:56;983.6;;;12.02;51.99
54459;BME280;40368;49.350;8.152;2024-03-29T00:01:56;983.5;;;12.03;51.95
54459;BME280;40368;49.350;8.152;2024-03-29T00:02:56;983.5;;;12.06;51.88
54459;BME280;40368;49.350;8.152;2024-03-29T00:03:56;983.4;;;12.09;51.68
54459;BME280;40368;49.350;8.152;2024-03-29T00:04:56;983.4;;;12.09;51.77
54459;BME280;40368;49.350;8.152;2024-03-29T00:05:56;983.3;;;12.11;51.53
54459;BME280;40368;49.350;8.152;2024-03-29T00:06:56;983.3;;;12.08;51.65
54459;BME280;40368;49.350;8.152;2024-03-29T00:07:56;983.2;;;12.08;51.61
54459;BME280;40368;49.350;8.152;2024-03-29T00:08:56;983.2;;;12.07;51.8
54459;BME280;40368;49.350;8.152;2024-03-29T00:09:56;983.1;;;12.07;51.94
54459;BME280;40368;49.350;8.152;2024-03-29T00:10:56;983.1;;;12.04;52.05
54459;BME280;40368;49.350;8.152;2024-03-29T00:11:56;983.1;;;12.02;52.05
54459;BME280;40368;49.350;8.152;2024-03-29T00:12:56;983;;;12.01;51.93
54459;BME280;40368;49.350;8.152;2024-03-29T00:13:56;982.9;;;11.96;52.14
54459;BME280;40368;49.350;8.152;2024-03-29T00:14:56;982.9;;;11.94;52.29
54459;BME280;40368;49.350;8.152;2024-03-29T00:15:56;983;;;11.96;52.22
54459;BME280;40368;49.350;8.152;2024-03-29T00:16:56;983;;;12;52.13
54459;BME280;40368;49.350;8.152;2024-03-29T00:17:56;983;;;12.02;52.04
54459;BME280;40368;49.350;8.152;2024-03-29T00:18:57;983;;;12.03;51.94
54459;BME280;40368;49.350;8.152;2024-03-29T00:19:56;983.1;;;12.03;51.94
54459;BME280;40368;49.350;8.152;2024-03-29T00:20:56;983;;;12.05;51.8
54459;BME280;40368;49.350;8.152;2024-03-29T00:21:56;983;;;12.07;51.83
54459;BME280;40368;49.350;8.152;2024-03-29T00:22:56;983;;;12.09;51.76
54459;BME280;40368;49.350;8.152;2024-03-29T00:23:56;983;;;12.11;51.81
54459;BME280;40368;49.350;8.152;2024-03-29T00:24:56;983;;;12.12;51.76
54459;BME280;40368;49.350;8.152;2024-03-29T00:25:56;982.9;;;12.09;51.83
54459;BME280;40368;49.350;8.152;2024-03-29T00:26:56;982.8;;;12.07;51.86
54459;BME280;40368;49.350;8.152;2024-03-29T00:27:56;982.8;;;12.08;51.87
54459;BME280;40368;49.350;8.152;2024-03-29T00:28:56;982.8;;;12.09;51.94
54459;BME280;40368;49.350;8.152;2024-03-29T00:29:56;982.9;;;12.09;51.97
54459;BME280;40368;49.350;8.152;2024-03-29T00:30:56;982.9;;;12.09;51.96
54459;BME280;40368;49.350;8.152;2024-03-29T00:31:56;982.9;;;12.07;52.16
54459;BME280;40368;49.350;8.152;2024-03-29T00:32:56;982.9;;;12.05;52.25
54459;BME280;40368;49.350;8.152;2024-03-29T00:33:56;982.9;;;12.03;52.09
54459;BME280;40368;49.350;8.152;2024-03-29T00:34:56;982.8;;;12.04;52.2
54459;BME280;40368;49.350;8.152;2024-03-29T00:35:56;982.8;;;12.05;52.33
54459;BME280;40368;49.350;8.152;2024-03-29T00:36:56;982.8;;;12.02;52.48
54459;BME280;40368;49.350;8.152;2024-03-29T00:37:56;982.8;;;12.03;52.24
54459;BME280;40368;49.350;8.152;2024-03-29T00:38:56;982.8;;;12.05;52.42
54459;BME280;40368;49.350;8.152;2024-03-29T00:39:56;982.8;;;12.03;52.22
54459;BME280;40368;49.350;8.152;2024-03-29T00:40:56;982.8;;;12.02;52.36
54459;BME280;40368;49.350;8.152;2024-03-29T00:41:56;982.8;;;12.02;52.35
54459;BME280;40368;49.350;8.152;2024-03-29T00:42:56;982.8;;;12.02;52.42
54459;BME280;40368;49.350;8.152;2024-03-29T00:43:55;982.7;;;12.02;52.44
54459;BME280;40368;49.350;8.152;2024-03-29T00:44:56;982.8;;;12.03;52.29
54459;BME280;40368;49.350;8.152;2024-03-29T00:45:56;982.8;;;12.04;52.5
54459;BME280;40368;49.350;8.152;2024-03-29T00:46:56;982.8;;;12.02;52.5
54459;BME280;40368;49.350;8.152;2024-03-29T00:47:56;982.8;;;12.02;52.63
54459;BME280;40368;49.350;8.152;2024-03-29T00:48:56;982.7;;;12.06;52.12
54459;BME280;40368;49.350;8.152;2024-03-29T00:49:56;982.7;;;12.08;52.25
54459;BME280;40368;49.350;8.152;2024-03-29T00:50:56;982.7;;;12.09;52.31
54459;BME280;40368;49.350;8.152;2024-03-29T00:51:56;982.7;;;12.1;52.21
54459;BME280;40368;49.350;8.152;2024-03-29T00:52:56;982.7;;;12.11;52.56
54459;BME280;40368;49.350;8.152;2024-03-29T00:53:56;982.7;;;12.1;52.46
54459;BME280;40368;49.350;8.152;2024-03-29T00:54:50;982.6;;;12.08;52.35
54459;BME280;40368;49.350;8.152;2024-03-29T00:55:56;982.6;;;12.08;52.54
54459;BME280;40368;49.350;8.152;2024-03-29T00:56:56;982.6;;;12.07;52.46
54459;BME280;40368;49.350;8.152;2024-03-29T00:57:56;982.6;;;12;52.37
54459;BME280;40368;49.350;8.152;2024-03-29T00:58:56;982.6;;;11.98;52.42
54459;BME280;40368;49.350;8.152;2024-03-29T00:59:56;982.6;;;12;52.18
54459;BME280;40368;49.350;8.152;2024-03-29T01:00:56;982.5;;;12.03;52.31
54459;BME280;40368;49.350;8.152;2024-03-29T01:01:56;982.5;;;12.03;52.6
54459;BME280;40368;49.350;8.152;2024-03-29T01:02:56;982.6;;;12.01;52.59
54459;BME280;40368;49.350;8.152;2024-03-29T01:03:56;982.6;;;12.02;52.37
54459;BME280;40368;49.350;8.152;2024-03-29T01:04:56;982.6;;;12.03;52.54
54459;BME280;40368;49.350;8.152;2024-03-29T01:05:56;982.7;;;12.05;52.6
54459;BME280;40368;49.350;8.152;2024-03-29T01:06:56;982.7;;;12.05;52.37
54459;BME280;40368;49.350;8.152;2024-03-29T01:07:56;982.7;;;11.96;52.82
54459;BME280;40368;49.350;8.152;2024-03-29T01:08:56;982.7;;;11.89;52.66
54459;BME280;40368;49.350;8.152;2024-03-29T01:09:56;982.7;;;11.9;52.71
54459;BME280;40368;49.350;8.152;2024-03-29T01:10:56;982.6;;;11.94;52.65
54459;BME280;40368;49.350;8.152;2024-03-29T01:11:56;982.6;;;11.95;53.13
54459;BME280;40368;49.350;8.152;2024-03-29T01:12:56;982.5;;;11.96;52.93
54459;BME280;40368;49.350;8.152;2024-03-29T01:13:56;982.5;;;11.97;53.02
54459;BME280;40368;49.350;8.152;2024-03-29T01:14:56;982.4;;;11.99;52.49
54459;BME280;40368;49.350;8.152;2024-03-29T01:15:56;982.2;;;12.04;52.27
54459;BME280;40368;49.350;8.152;2024-03-29T01:16:56;982.3;;;12.07;52.39
54459;BME280;40368;49.350;8.152;2024-03-29T01:17:56;982.3;;;12.07;52.68
54459;BME280;40368;49.350;8.152;2024-03-29T01:18:56;982.4;;;12.06;52.56
54459;BME280;40368;49.350;8.152;2024-03-29T01:19:56;982.3;;;12.08;52.68
54459;BME280;40368;49.350;8.152;2024-03-29T01:20:56;982.3;;;12.08;52.85
54459;BME280;40368;49.350;8.152;2024-03-29T01:21:56;982.3;;;12.07;52.75
54459;BME280;40368;49.350;8.152;2024-03-29T01:22:56;982.3;;;12.09;52.47
54459;BME280;40368;49.350;8.152;2024-03-29T01:23:56;982.2;;;12.12;52.29
54459;BME280;40368;49.350;8.152;2024-03-29T01:24:56;982.3;;;12.12;52.48
54459;BME280;40368;49.350;8.152;2024-03-29T01:25:56;982.4;;;12.11;52.52
54459;BME280;40368;49.350;8.152;2024-03-29T01:26:55;982.3;;;12.07;52.7
54459;BME280;40368;49.350;8.152;2024-03-29T01:27:56;982.3;;;12.07;52.57
54459;BME280;40368;49.350;8.152;2024-03-29T01:28:56;982.2;;;12.07;52.65
54459;BME280;40368;49.350;8.152;2024-03-29T01:29:56;982.3;;;12.06;52.55
54459;BME280;40368;49.350;8.152;2024-03-29T01:30:56;982.3;;;12.05;52.56
54459;BME280;40368;49.350;8.152;2024-03-29T01:31:56;982.4;;;12.07;52.45
54459;BME280;40368;49.350;8.152;2024-03-29T01:32:56;982.4;;;12.06;53.1
54459;BME280;40368;49.350;8.152;2024-03-29T01:33:56;982.4;;;12.05;52.89
54459;BME280;40368;49.350;8.152;2024-03-29T01:34:56;982.5;;;12.08;52.78
54459;BME280;40368;49.350;8.152;2024-03-29T01:35:56;982.6;;;12.09;52.68
54459;BME280;40368;49.350;8.152;2024-03-29T01:36:56;982.6;;;12.08;52.65
54459;BME280;40368;49.350;8.152;2024-03-29T01:37:56;982.7;;;12.09;52.61
54459;BME280;40368;49.350;8.152;2024-03-29T01:38:56;982.7;;;12.11;52.64
54459;BME280;40368;49.350;8.152;2024-03-29T01:39:56;982.7;;;12.12;52.47
54459;BME280;40368;49.350;8.152;2024-03-29T01:40:56;982.6;;;12.14;52.06
54459;BME280;40368;49.350;8.152;2024-03-29T01:41:56;982.6;;;12.13;51.99
54459;BME280;40368;49.350;8.152;2024-03-29T01:42:57;982.6;;;12.14;51.99
54459;BME280;40368;49.350;8.152;2024-03-29T01:43:56;982.5;;;12.18;51.67
54459;BME280;40368;49.350;8.152;2024-03-29T01:44:57;982.4;;;12.21;51.67
54459;BME280;40368;49.350;8.152;2024-03-29T01:45:57;982.4;;;12.19;51.71
54459;BME280;40368;49.350;8.152;2024-03-29T01:46:57;982.3;;;12.18;51.85
54459;BME280;40368;49.350;8.152;2024-03-29T01:47:56;982.2;;;12.19;51.49
54459;BME280;40368;49.350;8.152;2024-03-29T01:48:57;982.3;;;12.19;51.48
54459;BME280;40368;49.350;8.152;2024-03-29T01:50:06;982.3;;;12.19;51.53
54459;BME280;40368;49.350;8.152;2024-03-29T01:50:57;982.3;;;12.21;51.76
54459;BME280;40368;49.350;8.152;2024-03-29T01:52:02;982.3;;;12.19;51.86
54459;BME280;40368;49.350;8.152;2024-03-29T01:53:03;982.4;;;12.18;51.72
54459;BME280;40368;49.350;8.152;2024-03-29T01:53:57;982.3;;;12.19;51.54
54459;BME280;40368;49.350;8.152;2024-03-29T01:56:04;982.4;;;12.18;51.87
54459;BME280;40368;49.350;8.152;2024-03-29T01:56:58;982.4;;;12.18;51.94
54459;BME280;40368;49.350;8.152;2024-03-29T01:57:56;982.4;;;12.16;51.79
54459;BME280;40368;49.350;8.152;2024-03-29T01:58:56;982.5;;;12.15;51.97
54459;BME280;40368;49.350;8.152;2024-03-29T01:59:56;982.5;;;12.14;51.86
54459;BME280;40368;49.350;8.152;2024-03-29T02:00:57;982.4;;;12.14;51.89
54459;BME280;40368;49.350;8.152;2024-03-29T02:01:56;982.2;;;12.15;51.97
54459;BME280;40368;49.350;8.152;2024-03-29T02:02:56;982;;;12.18;51.7
54459;BME280;40368;49.350;8.152;2024-03-29T02:03:56;982.1;;;12.22;51.68
54459;BME280;40368;49.350;8.152;2024-03-29T02:04:56;982;;;12.25;51.91
54459;BME280;40368;49.350;8.152;2024-03-29T02:05:56;982.2;;;12.25;52.08
54459;BME280;40368;49.350;8.152;2024-03-29T02:06:56;982.2;;;12.24;51.89
54459;BME280;40368;49.350;8.152;2024-03-29T02:07:56;982.2;;;12.21;52.18
54459;BME280;40368;49.350;8.152;2024-03-29T02:08:56;982.3;;;12.21;52.05
54459;BME280;40368;49.350;8.152;2024-03-29T02:09:56;982.3;;;12.22;51.59
54459;BME280;40368;49.350;8.152;2024-03-29T02:10:56;982.2;;;12.24;51.52
54459;BME280;40368;49.350;8.152;2024-03-29T02:11:57;982.4;;;12.23;51.66
54459;BME280;40368;49.350;8.152;2024-03-29T02:12:56;982.4;;;12.21;51.63
54459;BME280;40368;49.350;8.152;2024-03-29T02:13:56;982.3;;;12.18;51.82
54459;BME280;40368;49.350;8.152;2024-03-29T02:14:56;982.4;;;12.17;51.89
54459;BME280;40368;49.350;8.152;2024-03-29T02:15:56;982.4;;;12.14;52.24
54459;BME280;40368;49.350;8.152;2024-03-29T02:16:56;982.4;;;12.16;52.35
54459;BME280;40368;49.350;8.152;2024-03-29T02:17:56;982.5;;;12.16;52.31
54459;BME280;40368;49.350;8.152;2024-03-29T02:18:56;982.5;;;12.16;52.27
54459;BME280;40368;49.350;8.152;2024-03-29T02:19:56;982.6;;;12.16;52.41
54459;BME280;40368;49.350;8.152;2024-03-29T02:20:56;982.6;;;12.15;52.34
54459;BME280;40368;49.350;8.152;2024-03-29T02:21:56;982.4;;;12.19;51.83
54459;BME280;40368;49.350;8.152;2024-03-29T02:23:58;982.4;;;12.24;51.49
54459;BME280;40368;49.350;8.152;2024-03-29T02:24:56;982.4;;;12.24;51.91
54459;BME280;40368;49.350;8.152;2024-03-29T02:25:56;982.4;;;12.23;51.98
54459;BME280;40368;49.350;8.152;2024-03-29T02:26:56;982.3;;;12.24;51.83
54459;BME280;40368;49.350;8.152;2024-03-29T02:27:56;982.1;;;12.28;51.58
54459;BME280;40368;49.350;8.152;2024-03-29T02:28:56;982.1;;;12.32;51.65
54459;BME280;40368;49.350;8.152;2024-03-29T02:29:56;982.3;;;12.32;52.61
54459;BME280;40368;49.350;8.152;2024-03-29T02:30:56;982.5;;;12.27;52.13
54459;BME280;40368;49.350;8.152;2024-03-29T02:31:56;982.3;;;12.27;52.03
54459;BME280;40368;49.350;8.152;2024-03-29T02:32:56;982.1;;;12.29;51.58
54459;BME280;40368;49.350;8.152;2024-03-29T02:33:56;982.1;;;12.34;51.38
54459;BME280;40368;49.350;8.152;2024-03-29T02:34:56;982.1;;;12.35;51.63
54459;BME280;40368;49.350;8.152;2024-03-29T02:35:56;982.2;;;12.34;51.73
54459;BME280;40368;49.350;8.152;2024-03-29T02:36:56;982.2;;;12.32;51.64
54459;BME280;40368;49.350;8.152;2024-03-29T02:37:56;982.3;;;12.31;51.99
54459;BME280;40368;49.350;8.152;2024-03-29T02:38:56;982.4;;;12.27;51.48
54459;BME280;40368;49.350;8.152;2024-03-29T02:39:56;982.4;;;12.27;51.78
54459;BME280;40368;49.350;8.152;2024-03-29T02:40:56;982.4;;;12.25;51.31
54459;BME280;40368;49.350;8.152;2024-03-29T02:41:56;982.5;;;12.24;51.21
54459;BME280;40368;49.350;8.152;2024-03-29T02:42:56;982.4;;;12.25;51.3
54459;BME280;40368;49.350;8.152;2024-03-29T02:43:56;982.5;;;12.24;51.27
54459;BME280;40368;49.350;8.152;2024-03-29T02:44:56;982.5;;;12.25;51.41
54459;BME280;40368;49.350;8.152;2024-03-29T02:45:56;982.5;;;12.28;51.64
54459;BME280;40368;49.350;8.152;2024-03-29T02:46:56;982.4;;;12.27;52
54459;BME280;40368;49.350;8.152;2024-03-29T02:47:56;982.4;;;12.24;52.28
54459;BME280;40368;49.350;8.152;2024-03-29T02:48:56;982.3;;;12.25;51.54
54459;BME280;40368;49.350;8.152;2024-03-29T02:49:56;982.4;;;12.28;51.47
54459;BME280;40368;49.350;8.152;2024-03-29T02:50:56;982.4;;;12.31;51.5
54459;BME280;40368;49.350;8.152;2024-03-29T02:51:56;982.5;;;12.31;52.16
54459;BME280;40368;49.350;8.152;2024-03-29T02:52:56;982.6;;;12.28;51.55
54459;BME280;40368;49.350;8.152;2024-03-29T02:53:56;982.6;;;12.29;51.64
54459;BME280;40368;49.350;8.152;2024-03-29T02:54:56;982.5;;;12.31;51.36
54459;BME280;40368;49.350;8.152;2024-03-29T02:55:56;982.7;;;12.3;51.67
54459;BME280;40368;49.350;8.152;2024-03-29T02:56:56;982.6;;;12.28;51.53
54459;BME280;40368;49.350;8.152;2024-03-29T02:57:56;982.4;;;12.26;51.46
54459;BME280;40368;49.350;8.152;2024-03-29T02:58:56;982.4;;;12.28;51.32
54459;BME280;40368;49.350;8.152;2024-03-29T02:59:56;982.5;;;12.3;51.38
54459;BME280;40368;49.350;8.152;2024-03-29T03:00:56;982.3;;;12.34;51.25
54459;BME280;40368;49.350;8.152;2024-03-29T03:01:56;982.4;;;12.38;51.2
54459;BME280;40368;49.350;8.152;2024-03-29T03:02:56;982.4;;;12.36;51.46
54459;BME280;40368;49.350;8.152;2024-03-29T03:03:56;982.4;;;12.35;51.49
54459;BME280;40368;49.350;8.152;2024-03-29T03:04:56;982.5;;;12.34;51.79
54459;BME280;40368;49.350;8.152;2024-03-29T03:05:56;982.4;;;12.36;51.14
54459;BME280;40368;49.350;8.152;2024-03-29T03:06:56;982.4;;;12.36;51.58
54459;BME280;40368;49.350;8.152;2024-03-29T03:07:56;982.4;;;12.38;51.36
54459;BME280;40368;49.350;8.152;2024-03-29T03:08:56;982.4;;;12.38;52
54459;BME280;40368;49.350;8.152;2024-03-29T03:09:56;982.4;;;12.38;51.99
54459;BME280;40368;49.350;8.152;2024-03-29T03:10:56;982.4;;;12.37;52.61
54459;BME280;40368;49.350;8.152;2024-03-29T03:11:56;982.5;;;12.35;52.16
54459;BME280;40368;49.350;8.152;2024-03-29T03:12:56;982.6;;;12.33;52.04
54459;BME280;40368;49.350;8.152;2024-03-29T03:13:56;982.6;;;12.33;52.08
54459;BME280;40368;49.350;8.152;2024-03-29T03:14:56;982.5;;;12.36;51.84
54459;BME280;40368;49.350;8.152;2024-03-29T03:15:56;982.4;;;12.37;51.94
54459;BME280;40368;49.350;8.152;2024-03-29T03:16:56;982.6;;;12.33;52.23
54459;BME280;40368;49.350;8.152;2024-03-29T03:17:56;982.6;;;12.29;52.55
54459;BME280;40368;49.350;8.152;2024-03-29T03:18:56;982.6;;;12.33;51.83
54459;BME280;40368;49.350;8.152;2024-03-29T03:19:56;982.5;;;12.37;51.79
54459;BME280;40368;49.350;8.152;2024-03-29T03:20:56;982.5;;;12.4;51.42
54459;BME280;40368;49.350;8.152;2024-03-29T03:21:56;982.5;;;12.43;51.78
54459;BME280;40368;49.350;8.152;2024-03-29T03:22:56;982.6;;;12.4;51.71
54459;BME280;40368;49.350;8.152;2024-03-29T03:23:56;982.6;;;12.39;52.28
54459;BME280;40368;49.350;8.152;2024-03-29T03:24:56;982.7;;;12.34;52.54
54459;BME280;40368;49.350;8.152;2024-03-29T03:25:56;982.7;;;12.32;52.39
54459;BME280;40368;49.350;8.152;2024-03-29T03:26:55;982.6;;;12.34;52.35
54459;BME280;40368;49.350;8.152;2024-03-29T03:27:56;982.7;;;12.32;52.35
54459;BME280;40368;49.350;8.152;2024-03-29T03:28:56;982.8;;;12.3;52.81
54459;BME280;40368;49.350;8.152;2024-03-29T03:29:56;982.8;;;12.3;53.21
54459;BME280;40368;49.350;8.152;2024-03-29T03:30:56;982.8;;;12.28;52.87
54459;BME280;40368;49.350;8.152;2024-03-29T03:31:56;982.7;;;12.28;52.86
54459;BME280;40368;49.350;8.152;2024-03-29T03:32:56;982.7;;;12.28;52.49
54459;BME280;40368;49.350;8.152;2024-03-29T03:33:56;982.7;;;12.29;52.62
54459;BME280;40368;49.350;8.152;2024-03-29T03:34:56;982.7;;;12.29;52.74
54459;BME280;40368;49.350;8.152;2024-03-29T03:35:56;982.7;;;12.29;53.42
54459;BME280;40368;49.350;8.152;2024-03-29T03:36:56;982.7;;;12.29;53.59
54459;BME280;40368;49.350;8.152;2024-03-29T03:37:56;982.7;;;12.29;53.75
54459;BME280;40368;49.350;8.152;2024-03-29T03:38:56;982.7;;;12.27;54.3
54459;BME280;40368;49.350;8.152;2024-03-29T03:39:56;982.7;;;12.25;53.68
54459;BME280;40368;49.350;8.152;2024-03-29T03:40:56;982.7;;;12.25;53.71
54459;BME280;40368;49.350;8.152;2024-03-29T03:41:56;982.6;;;12.27;53.21
54459;BME280;40368;49.350;8.152;2024-03-29T03:42:56;982.6;;;12.29;53.11
54459;BME280;40368;49.350;8.152;2024-03-29T03:43:56;982.6;;;12.28;53.44
54459;BME280;40368;49.350;8.152;2024-03-29T03:44:56;982.6;;;12.27;54.55
54459;BME280;40368;49.350;8.152;2024-03-29T03:45:59;982.5;;;12.26;54.6
54459;BME280;40368;49.350;8.152;2024-03-29T03:46:56;982.5;;;12.27;53.83
54459;BME280;40368;49.350;8.152;2024-03-29T03:47:56;982.5;;;12.28;54.17
54459;BME280;40368;49.350;8.152;2024-03-29T03:48:56;982.5;;;12.27;54.12
54459;BME280;40368;49.350;8.152;2024-03-29T03:49:56;982.6;;;12.26;54.73
54459;BME280;40368;49.350;8.152;2024-03-29T03:50:56;982.5;;;12.25;54.6
54459;BME280;40368;49.350;8.152;2024-03-29T03:51:56;982.6;;;12.27;54.35
54459;BME280;40368;49.350;8.152;2024-03-29T03:52:56;982.5;;;12.28;54.64
54459;BME280;40368;49.350;8.152;2024-03-29T03:53:56;982.6;;;12.26;54.54
54459;BME280;40368;49.350;8.152;2024-03-29T03:54:56;982.6;;;12.27;54.09
54459;BME280;40368;49.350;8.152;2024-03-29T03:55:56;982.6;;;12.25;54.95
54459;BME280;40368;49.350;8.152;2024-03-29T03:56:56;982.6;;;12.24;55.35
54459;BME280;40368;49.350;8.152;2024-03-29T03:57:56;982.6;;;12.25;54.34
54459;BME280;40368;49.350;8.152;2024-03-29T03:58:56;982.7;;;12.28;54.78
54459;BME280;40368;49.350;8.152;2024-03-29T03:59:56;982.7;;;12.28;55.02
54459;BME280;40368;49.350;8.152;2024-03-29T04:00:56;982.6;;;12.28;54.55
54459;BME280;40368;49.350;8.152;2024-03-29T04:01:56;982.5;;;12.28;54.87
54459;BME280;40368;49.350;8.152;2024-03-29T04:02:56;982.5;;;12.28;55.06
54459;BME280;40368;49.350;8.152;2024-03-29T04:03:56;982.5;;;12.27;55.1
54459;BME280;40368;49.350;8.152;2024-03-29T04:04:56;982.5;;;12.27;54.81
54459;BME280;40368;49.350;8.152;2024-03-29T04:05:56;982.5;;;12.29;54.92
54459;BME280;40368;49.350;8.152;2024-03-29T04:06:56;982.5;;;12.29;56.51
54459;BME280;40368;49.350;8.152;2024-03-29T04:07:56;982.5;;;12.29;55.52
54459;BME280;40368;49.350;8.152;2024-03-29T04:08:56;982.5;;;12.3;55.25
54459;BME280;40368;49.350;8.152;2024-03-29T04:09:56;982.4;;;12.3;55.13
54459;BME280;40368;49.350;8.152;2024-03-29T04:10:56;982.5;;;12.3;55.51
54459;BME280;40368;49.350;8.152;2024-03-29T04:11:56;982.5;;;12.29;56.78
54459;BME280;40368;49.350;8.152;2024-03-29T04:12:56;982.4;;;12.27;56.38
54459;BME280;40368;49.350;8.152;2024-03-29T04:14:56;982.4;;;12.26;56.51
54459;BME280;40368;49.350;8.152;2024-03-29T04:16:00;982.4;;;12.25;56.66
54459;BME280;40368;49.350;8.152;2024-03-29T04:16:56;982.4;;;12.26;55.81
54459;BME280;40368;49.350;8.152;2024-03-29T04:17:56;982.3;;;12.25;56.63
54459;BME280;40368;49.350;8.152;2024-03-29T04:18:56;982.3;;;12.22;57.75
54459;BME280;40368;49.350;8.152;2024-03-29T04:19:56;982.3;;;12.21;56.73
54459;BME280;40368;49.350;8.152;2024-03-29T04:20:56;982.3;;;12.19;58.16
54459;BME280;40368;49.350;8.152;2024-03-29T04:21:56;982.3;;;12.17;56.58
54459;BME280;40368;49.350;8.152;2024-03-29T04:22:56;982.4;;;12.16;58.11
54459;BME280;40368;49.350;8.152;2024-03-29T04:23:56;982.4;;;12.12;57.28
54459;BME280;40368;49.350;8.152;2024-03-29T04:24:56;982.4;;;12.11;56.51
54459;BME280;40368;49.350;8.152;2024-03-29T04:25:56;982.3;;;12.07;56.3
54459;BME280;40368;49.350;8.152;2024-03-29T04:26:56;982.3;;;12.11;56.02
54459;BME280;40368;49.350;8.152;2024-03-29T04:27:56;982.3;;;12.14;55.77
54459;BME280;40368;49.350;8.152;2024-03-29T04:28:56;982.2;;;12.16;55.7
54459;BME280;40368;49.350;8.152;2024-03-29T04:29:57;982.3;;;12.18;57
54459;BME280;40368;49.350;8.152;2024-03-29T04:30:56;982.3;;;12.17;56.74
54459;BME280;40368;49.350;8.152;2024-03-29T04:31:56;982.3;;;12.15;56.27
54459;BME280;40368;49.350;8.152;2024-03-29T04:32:56;982.3;;;12.15;57.13
54459;BME280;40368;49.350;8.152;2024-03-29T04:33:56;982.3;;;12.16;57.85
54459;BME280;40368;49.350;8.152;2024-03-29T04:34:56;982.4;;;12.14;56.66
54459;BME280;40368;49.350;8.152;2024-03-29T04:35:56;982.3;;;12.04;57.06
54459;BME280;40368;49.350;8.152;2024-03-29T04:36:56;982.4;;;12.07;58.46
54459;BME280;40368;49.350;8.152;2024-03-29T04:37:56;982.4;;;12.05;56.7
54459;BME280;40368;49.350;8.152;2024-03-29T04:38:56;982.4;;;12.04;57.62
54459;BME280;40368;49.350;8.152;2024-03-29T04:39:56;982.3;;;12;58.42
54459;BME280;40368;49.350;8.152;2024-03-29T04:40:56;982.4;;;11.99;56.97
54459;BME280;40368;49.350;8.152;2024-03-29T04:41:56;982.4;;;11.96;59
54459;BME280;40368;49.350;8.152;2024-03-29T04:42:56;982.4;;;11.93;58.98
54459;BME280;40368;49.350;8.152;2024-03-29T04:43:56;982.4;;;11.9;59.12
54459;BME280;40368;49.350;8.152;2024-03-29T04:44:56;982.3;;;11.89;59.17
54459;BME280;40368;49.350;8.152;2024-03-29T04:46:03;982.3;;;11.85;60.05
54459;BME280;40368;49.350;8.152;2024-03-29T04:46:56;982.4;;;11.84;59.32
54459;BME280;40368;49.350;8.152;2024-03-29T04:47:56;982.3;;;11.81;60.07
54459;BME280;40368;49.350;8.152;2024-03-29T04:48:56;982.3;;;11.79;59.47
54459;BME280;40368;49.350;8.152;2024-03-29T04:49:57;982.2;;;11.77;60.22
54459;BME280;40368;49.350;8.152;2024-03-29T04:50:56;982.3;;;11.77;59.57
54459;BME280;40368;49.350;8.152;2024-03-29T04:51:56;982.3;;;11.81;58.46
54459;BME280;40368;49.350;8.152;2024-03-29T04:52:56;982.3;;;11.85;59.37
54459;BME280;40368;49.350;8.152;2024-03-29T04:53:56;982.3;;;11.88;58.04
54459;BME280;40368;49.350;8.152;2024-03-29T04:54:56;982.3;;;11.9;58.62
54459;BME280;40368;49.350;8.152;2024-03-29T04:55:56;982.3;;;11.92;58.67
54459;BME280;40368;49.350;8.152;2024-03-29T04:56:56;982.3;;;11.96;57.56
54459;BME280;40368;49.350;8.152;2024-03-29T04:57:56;982.4;;;12;57.52
54459;BME280;40368;49.350;8.152;2024-03-29T04:58:56;982.4;;;11.99;56.87
54459;BME280;40368;49.350;8.152;2024-03-29T04:59:56;982.4;;;12;58.37
54459;BME280;40368;49.350;8.152;2024-03-29T05:00:56;982.4;;;11.95;58.79
54459;BME280;40368;49.350;8.152;2024-03-29T05:01:59;982.4;;;11.92;58.22
54459;BME280;40368;49.350;8.152;2024-03-29T05:02:56;982.5;;;11.93;58.44
54459;BME280;40368;49.350;8.152;2024-03-29T05:03:56;982.4;;;11.93;58.62
54459;BME280;40368;49.350;8.152;2024-03-29T05:04:56;982.4;;;11.97;57.22
54459;BME280;40368;49.350;8.152;2024-03-29T05:05:56;982.4;;;12.01;58.14
54459;BME280;40368;49.350;8.152;2024-03-29T05:06:56;982.3;;;12.02;57.73
54459;BME280;40368;49.350;8.152;2024-03-29T05:07:56;982.4;;;12.03;58.05
54459;BME280;40368;49.350;8.152;2024-03-29T05:08:56;982.4;;;12.03;58.62
54459;BME280;40368;49.350;8.152;2024-03-29T05:09:56;982.3;;;12.03;58.57
54459;BME280;40368;49.350;8.152;2024-03-29T05:10:56;982.3;;;12.02;57.67
54459;BME280;40368;49.350;8.152;2024-03-29T05:11:56;982.3;;;12.04;58.14
54459;BME280;40368;49.350;8.152;2024-03-29T05:12:56;982.3;;;12.06;59.15
54459;BME280;40368;49.350;8.152;2024-03-29T05:13:56;982.2;;;12.08;57.73
54459;BME280;40368;49.350;8.152;2024-03-29T05:14:56;982.3;;;12.08;59.19
54459;BME280;40368;49.350;8.152;2024-03-29T05:15:56;982.3;;;12.05;60.05
54459;BME280;40368;49.350;8.152;2024-03-29T05:16:56;982.3;;;12.02;60.14
54459;BME280;40368;49.350;8.152;2024-03-29T05:17:56;982.3;;;12.01;60.39
54459;BME280;40368;49.350;8.152;2024-03-29T05:18:56;982.3;;;11.96;60.76
54459;BME280;40368;49.350;8.152;2024-03-29T05:19:56;982.3;;;11.95;60.32
54459;BME280;40368;49.350;8.152;2024-03-29T05:20:56;982.3;;;11.94;58.8
54459;BME280;40368;49.350;8.152;2024-03-29T05:21:56;982.2;;;11.94;60.2
54459;BME280;40368;49.350;8.152;2024-03-29T05:22:56;982.2;;;11.98;59.42
54459;BME280;40368;49.350;8.152;2024-03-29T05:23:56;982.3;;;12;60.09
54459;BME280;40368;49.350;8.152;2024-03-29T05:24:56;982.3;;;12.02;60.03
54459;BME280;40368;49.350;8.152;2024-03-29T05:25:56;982.2;;;12.04;60.01
54459;BME280;40368;49.350;8.152;2024-03-29T05:26:56;982.3;;;12.02;60.96
54459;BME280;40368;49.350;8.152;2024-03-29T05:27:56;982.4;;;12;60.43
54459;BME280;40368;49.350;8.152;2024-03-29T05:28:56;982.4;;;11.97;60.46
54459;BME280;40368;49.350;8.152;2024-03-29T05:29:56;982.4;;;11.95;60.99
54459;BME280;40368;49.350;8.152;2024-03-29T05:30:56;982.4;;;11.96;60.88
54459;BME280;40368;49.350;8.152;2024-03-29T05:31:56;982.3;;;11.92;61.39
54459;BME280;40368;49.350;8.152;2024-03-29T05:32:56;982.3;;;11.9;60.99
54459;BME280;40368;49.350;8.152;2024-03-29T05:33:56;982.3;;;11.89;61.13
54459;BME280;40368;49.350;8.152;2024-03-29T05:34:56;982.4;;;11.89;60.51
54459;BME280;40368;49.350;8.152;2024-03-29T05:35:56;982.4;;;12;61.15